Time;durP1;ratioP1;P1;durP2;ratioP2;P2;SDS_P1;SDS_P2;PMS_P1;PMS_P2;Temp;Humidity;BMP_temperature;BMP_pressure;BME280_temperature;BME280_humidity;BME280_pressure;Samples;Min_cycle;Max_cycle;Signal;HPM_P1;HPM_P2
2023/07/21 00:01:06;;;;;;;;;;;21.10;45.80;;;;;;5024644;28;20280;-77
2023/07/21 00:03:35;;;;;;;;;;;21.10;46.20;;;;;;5033071;28;19997;-78
2023/07/21 00:06:01;;;;;;;;;;;21.10;46.30;;;;;;5032905;28;20372;-74
2023/07/21 00:08:29;;;;;;;;;;;21.10;46.50;;;;;;5032148;28;19917;-78
2023/07/21 00:10:58;;;;;;;;;;;21.10;46.30;;;;;;5021797;28;20314;-77
2023/07/21 00:13:23;;;;;;;;;;;21.10;46.20;;;;;;5022496;28;20357;-77
2023/07/21 00:15:49;;;;;;;;;;;21.10;46.30;;;;;;5030750;28;19921;-78
2023/07/21 00:18:15;;;;;;;;;;;21.10;46.50;;;;;;5032479;28;19917;-75
2023/07/21 00:20:41;;;;;;;;;;;21.10;46.50;;;;;;5032342;28;20373;-75
2023/07/21 00:23:06;;;;;;;;;;;21.10;47.00;;;;;;5031994;28;19924;-76
2023/07/21 00:25:32;;;;;;;;;;;21.10;48.30;;;;;;5032448;28;20369;-76
2023/07/21 00:27:57;;;;;;;;;;;21.00;48.30;;;;;;5032961;28;20353;-76
2023/07/21 00:30:23;;;;;;;;;;;20.90;48.20;;;;;;5032446;28;19936;-76
2023/07/21 00:32:48;;;;;;;;;;;20.90;48.20;;;;;;5032412;28;19996;-76
2023/07/21 00:35:14;;;;;;;;;;;20.90;48.30;;;;;;5032407;28;19917;-76
2023/07/21 00:37:39;;;;;;;;;;;20.90;48.20;;;;;;5014476;28;20372;-76
2023/07/21 00:40:09;;;;;;;;;;;20.90;48.10;;;;;;5031894;28;19936;-78
2023/07/21 00:42:36;;;;;;;;;;;20.90;48.10;;;;;;5031308;28;20419;-76
2023/07/21 00:45:01;;;;;;;;;;;20.90;48.10;;;;;;5030708;28;20293;-76
2023/07/21 00:47:28;;;;;;;;;;;20.90;48.30;;;;;;5032124;28;20004;-76
2023/07/21 00:49:54;;;;;;;;;;;20.90;48.80;;;;;;5032221;28;19924;-76
2023/07/21 00:52:19;;;;;;;;;;;20.90;49.20;;;;;;5026713;28;19918;-76
2023/07/21 00:54:45;;;;;;;;;;;20.80;49.40;;;;;;5013790;28;19914;-76
2023/07/21 00:57:11;;;;;;;;;;;20.80;49.60;;;;;;5032686;28;19918;-77
2023/07/21 00:59:37;;;;;;;;;;;20.70;49.80;;;;;;5031893;28;19909;-76
2023/07/21 01:02:03;;;;;;;;;;;20.70;49.70;;;;;;5014916;28;19918;-77
2023/07/21 01:04:30;;;;;;;;;;;20.60;49.90;;;;;;5011905;28;19913;-73
2023/07/21 01:06:56;;;;;;;;;;;20.50;50.00;;;;;;5012567;28;19925;-76
2023/07/21 01:09:22;;;;;;;;;;;20.40;50.10;;;;;;5012886;28;19968;-78
2023/07/21 01:11:47;;;;;;;;;;;20.30;50.50;;;;;;5031935;28;20281;-76
2023/07/21 01:14:13;;;;;;;;;;;20.20;50.70;;;;;;5011924;28;20012;-77
2023/07/21 01:16:43;;;;;;;;;;;20.10;51.00;;;;;;5031179;28;19913;-77
2023/07/21 01:19:11;;;;;;;;;;;20.00;51.20;;;;;;5032013;28;19988;-77
2023/07/21 01:21:43;;;;;;;;;;;20.00;51.40;;;;;;5031152;28;19963;-77
2023/07/21 01:24:12;;;;;;;;;;;19.90;51.70;;;;;;5031337;28;19920;-77
2023/07/21 01:26:39;;;;;;;;;;;19.80;51.70;;;;;;5031471;28;19920;-77
2023/07/21 01:29:05;;;;;;;;;;;19.80;51.60;;;;;;5013972;28;19915;-77
2023/07/21 01:31:31;;;;;;;;;;;19.80;51.70;;;;;;5031445;28;19931;-77
2023/07/21 01:33:57;;;;;;;;;;;19.80;51.90;;;;;;5031802;28;19955;-77
2023/07/21 01:36:23;;;;;;;;;;;19.80;51.90;;;;;;5031595;28;19924;-78
2023/07/21 01:38:48;;;;;;;;;;;19.80;51.90;;;;;;5013561;28;19921;-71
2023/07/21 01:41:14;;;;;;;;;;;19.90;51.90;;;;;;5029903;28;20005;-70
2023/07/21 01:43:40;;;;;;;;;;;19.90;52.00;;;;;;5028273;28;19964;-69
2023/07/21 01:46:08;;;;;;;;;;;19.80;52.30;;;;;;5031493;28;19913;-70
2023/07/21 01:48:33;;;;;;;;;;;19.80;52.50;;;;;;5028612;28;20004;-77
2023/07/21 01:51:00;;;;;;;;;;;19.80;52.60;;;;;;5011322;28;19984;-76
2023/07/21 01:53:28;;;;;;;;;;;19.80;52.40;;;;;;5026235;28;19921;-77
2023/07/21 01:56:02;;;;;;;;;;;19.80;52.40;;;;;;5029633;28;19909;-78
2023/07/21 01:58:28;;;;;;;;;;;19.80;52.30;;;;;;5031177;28;20830;-77
2023/07/21 02:00:55;;;;;;;;;;;19.70;52.20;;;;;;5026664;28;19948;-78
2023/07/21 02:03:21;;;;;;;;;;;19.70;52.10;;;;;;5027398;28;19922;-77
2023/07/21 02:05:48;;;;;;;;;;;19.70;52.10;;;;;;5019695;28;20335;-78
2023/07/21 02:08:13;;;;;;;;;;;19.60;52.20;;;;;;5015919;28;20364;-77
2023/07/21 02:10:40;;;;;;;;;;;19.60;52.50;;;;;;5027843;28;20042;-77
2023/07/21 02:13:06;;;;;;;;;;;19.60;52.50;;;;;;5049259;28;19917;-79
2023/07/21 02:15:32;;;;;;;;;;;19.50;52.40;;;;;;5032465;28;19924;-77
2023/07/21 02:17:57;;;;;;;;;;;19.50;52.30;;;;;;5031273;28;19917;-77
2023/07/21 02:20:23;;;;;;;;;;;19.50;52.20;;;;;;5031060;28;19992;-77
2023/07/21 02:22:48;;;;;;;;;;;19.50;52.20;;;;;;5031123;28;19921;-76
2023/07/21 02:25:15;;;;;;;;;;;19.50;52.40;;;;;;5030656;28;19909;-76
2023/07/21 02:27:41;;;;;;;;;;;19.40;52.80;;;;;;5031518;28;20280;-74
2023/07/21 02:30:07;;;;;;;;;;;19.40;52.90;;;;;;5029704;28;19920;-76
2023/07/21 02:32:32;;;;;;;;;;;19.30;52.90;;;;;;5025648;28;19924;-78
2023/07/21 02:35:00;;;;;;;;;;;19.30;52.90;;;;;;4994734;28;19917;-76
2023/07/21 02:37:26;;;;;;;;;;;19.30;53.00;;;;;;5023901;28;19918;-76
2023/07/21 02:39:51;;;;;;;;;;;19.20;53.40;;;;;;5019602;28;20281;-77
2023/07/21 02:42:17;;;;;;;;;;;19.10;53.50;;;;;;5029966;28;20392;-77
2023/07/21 02:44:43;;;;;;;;;;;19.10;53.40;;;;;;5027366;28;20409;-76
2023/07/21 02:47:09;;;;;;;;;;;18.90;53.30;;;;;;5030541;28;19922;-77
2023/07/21 02:49:34;;;;;;;;;;;18.80;53.50;;;;;;5030668;28;19913;-76
2023/07/21 02:52:00;;;;;;;;;;;18.80;53.70;;;;;;5030102;28;19939;-77
2023/07/21 02:54:25;;;;;;;;;;;18.70;53.80;;;;;;5030756;28;19983;-77
2023/07/21 02:56:51;;;;;;;;;;;18.60;54.20;;;;;;5012450;28;19916;-77
2023/07/21 02:59:16;;;;;;;;;;;18.60;54.20;;;;;;5009025;28;19921;-77
2023/07/21 03:01:43;;;;;;;;;;;18.50;54.20;;;;;;5024363;28;20296;-75
2023/07/21 03:04:09;;;;;;;;;;;18.50;54.20;;;;;;5029844;28;19923;-76
2023/07/21 03:06:34;;;;;;;;;;;18.40;54.20;;;;;;5029886;28;20036;-76
2023/07/21 03:09:00;;;;;;;;;;;18.40;54.00;;;;;;5029565;28;19920;-75
2023/07/21 03:11:26;;;;;;;;;;;18.30;54.10;;;;;;5033440;28;19922;-76
2023/07/21 03:13:51;;;;;;;;;;;18.30;54.10;;;;;;5016735;28;20285;-76
2023/07/21 03:16:17;;;;;;;;;;;18.20;54.30;;;;;;5025991;28;19917;-75
2023/07/21 03:18:42;;;;;;;;;;;18.20;54.20;;;;;;5034749;28;20029;-77
2023/07/21 03:21:07;;;;;;;;;;;18.10;54.20;;;;;;5033268;28;19909;-76
2023/07/21 03:23:33;;;;;;;;;;;18.10;54.40;;;;;;5034079;28;20011;-77
2023/07/21 03:25:59;;;;;;;;;;;18.00;54.50;;;;;;5033259;28;19917;-76
2023/07/21 03:28:25;;;;;;;;;;;18.00;54.40;;;;;;5013186;28;19917;-77
2023/07/21 03:31:00;;;;;;;;;;;18.00;54.50;;;;;;5031656;28;20444;-77
2023/07/21 03:33:26;;;;;;;;;;;18.00;54.60;;;;;;5027191;28;20416;-76
2023/07/21 03:36:00;;;;;;;;;;;17.90;54.70;;;;;;5022783;28;19913;-77
2023/07/21 03:38:25;;;;;;;;;;;17.90;54.70;;;;;;5025318;28;19925;-79
2023/07/21 03:40:58;;;;;;;;;;;17.90;54.70;;;;;;5022928;28;19916;-77
2023/07/21 03:43:24;;;;;;;;;;;17.90;54.80;;;;;;5014062;28;20277;-78
2023/07/21 03:45:55;;;;;;;;;;;17.90;54.70;;;;;;5028786;28;20028;-77
2023/07/21 03:48:21;;;;;;;;;;;17.90;54.80;;;;;;5032744;28;19928;-77
2023/07/21 03:50:46;;;;;;;;;;;17.90;54.80;;;;;;5025301;28;19913;-77
2023/07/21 03:53:11;;;;;;;;;;;18.00;54.90;;;;;;5013285;28;19921;-76
2023/07/21 03:55:38;;;;;;;;;;;18.10;54.90;;;;;;5020574;28;19999;-78
2023/07/21 03:58:04;;;;;;;;;;;18.20;55.00;;;;;;5033201;28;19917;-77
2023/07/21 04:00:29;;;;;;;;;;;18.20;55.10;;;;;;5028453;28;20345;-76
2023/07/21 04:02:55;;;;;;;;;;;18.30;55.10;;;;;;5013486;28;19922;-77
2023/07/21 04:05:20;;;;;;;;;;;18.30;55.40;;;;;;4996089;28;20020;-74
2023/07/21 04:07:46;;;;;;;;;;;18.50;55.60;;;;;;5013321;28;19929;-77
2023/07/21 04:10:11;;;;;;;;;;;18.80;55.80;;;;;;5015978;28;19962;-77
2023/07/21 04:12:36;;;;;;;;;;;19.00;55.90;;;;;;5039708;28;19921;-76
2023/07/21 04:15:02;;;;;;;;;;;19.30;55.90;;;;;;5032662;28;19914;-76
2023/07/21 04:17:27;;;;;;;;;;;19.60;55.80;;;;;;5030131;28;19924;-76
2023/07/21 04:19:53;;;;;;;;;;;19.90;55.60;;;;;;5029911;28;19920;-75
2023/07/21 04:22:18;;;;;;;;;;;20.00;55.10;;;;;;5030457;28;19967;-76
2023/07/21 04:24:45;;;;;;;;;;;20.20;54.60;;;;;;5031093;28;19959;-77
2023/07/21 04:27:11;;;;;;;;;;;20.20;54.30;;;;;;5032054;28;19921;-78
2023/07/21 04:29:36;;;;;;;;;;;20.30;54.10;;;;;;5031534;28;19975;-76
2023/07/21 04:32:02;;;;;;;;;;;20.30;54.00;;;;;;5013330;28;19941;-77
2023/07/21 04:34:27;;;;;;;;;;;20.30;53.90;;;;;;5021398;28;19959;-78
2023/07/21 04:36:53;;;;;;;;;;;20.40;53.80;;;;;;5026194;28;20428;-77
2023/07/21 04:39:18;;;;;;;;;;;20.40;53.70;;;;;;5032648;28;20109;-77
2023/07/21 04:41:44;;;;;;;;;;;20.40;53.60;;;;;;5031166;28;19913;-76
2023/07/21 04:44:10;;;;;;;;;;;20.40;53.60;;;;;;5032967;28;19913;-78
2023/07/21 04:46:35;;;;;;;;;;;20.50;53.50;;;;;;5024237;28;19921;-75
2023/07/21 04:49:07;;;;;;;;;;;20.50;53.50;;;;;;5012206;28;20004;-74
2023/07/21 04:51:32;;;;;;;;;;;20.50;53.50;;;;;;5012082;28;19910;-76
2023/07/21 04:53:58;;;;;;;;;;;20.50;53.60;;;;;;5012121;28;19929;-76
2023/07/21 04:56:25;;;;;;;;;;;20.50;53.60;;;;;;5012512;28;19917;-76
2023/07/21 04:58:50;;;;;;;;;;;20.50;53.60;;;;;;5015095;28;20415;-77
2023/07/21 05:01:16;;;;;;;;;;;20.70;53.70;;;;;;5031837;28;19914;-75
2023/07/21 05:03:42;;;;;;;;;;;20.70;53.60;;;;;;5032338;28;19917;-77
2023/07/21 05:06:09;;;;;;;;;;;20.80;53.60;;;;;;5020263;28;20003;-78
2023/07/21 05:08:35;;;;;;;;;;;21.00;53.90;;;;;;5012704;28;19928;-75
2023/07/21 05:11:00;;;;;;;;;;;21.20;53.80;;;;;;5012572;28;19910;-77
2023/07/21 05:13:26;;;;;;;;;;;21.40;53.60;;;;;;5034240;28;19917;-77
2023/07/21 05:15:51;;;;;;;;;;;21.50;53.20;;;;;;5032979;28;19984;-78
2023/07/21 05:18:17;;;;;;;;;;;21.70;52.90;;;;;;5012410;28;19918;-77
2023/07/21 05:20:42;;;;;;;;;;;21.80;52.80;;;;;;5023628;28;20293;-77
2023/07/21 05:23:09;;;;;;;;;;;21.90;53.00;;;;;;5031559;28;19968;-78
2023/07/21 05:25:34;;;;;;;;;;;22.30;53.30;;;;;;5031536;28;20312;-77
2023/07/21 05:28:00;;;;;;;;;;;22.50;53.10;;;;;;5031913;28;19924;-77
2023/07/21 05:30:25;;;;;;;;;;;22.90;52.80;;;;;;5031467;28;19909;-78
2023/07/21 05:32:50;;;;;;;;;;;23.30;52.40;;;;;;5031779;28;19925;-77
2023/07/21 05:35:16;;;;;;;;;;;23.60;51.60;;;;;;5031130;28;20020;-76
2023/07/21 05:37:41;;;;;;;;;;;23.80;51.10;;;;;;5026756;28;19917;-76
2023/07/21 05:40:09;;;;;;;;;;;24.10;50.30;;;;;;5037559;28;19960;-77
2023/07/21 05:42:35;;;;;;;;;;;24.20;49.80;;;;;;5030403;28;19974;-76
2023/07/21 05:45:02;;;;;;;;;;;24.30;49.50;;;;;;5030516;28;20361;-73
2023/07/21 05:47:27;;;;;;;;;;;24.50;49.40;;;;;;5031616;28;19924;-76
2023/07/21 05:50:00;;;;;;;;;;;24.70;49.20;;;;;;5045613;28;20335;-76
2023/07/21 05:52:26;;;;;;;;;;;24.90;48.90;;;;;;5011166;28;19925;-78
2023/07/21 05:54:51;;;;;;;;;;;25.10;48.20;;;;;;5037851;28;19921;-76
2023/07/21 05:57:18;;;;;;;;;;;25.20;48.00;;;;;;5011003;28;20223;-76
2023/07/21 05:59:45;;;;;;;;;;;25.60;47.90;;;;;;5029000;28;20439;-76
2023/07/21 06:02:11;;;;;;;;;;;25.90;47.40;;;;;;5010902;28;19924;-76
2023/07/21 06:04:36;;;;;;;;;;;26.20;46.70;;;;;;5019624;28;20261;-74
2023/07/21 06:07:02;;;;;;;;;;;26.50;46.60;;;;;;5013287;28;19921;-74
2023/07/21 06:09:28;;;;;;;;;;;26.90;46.50;;;;;;5011639;28;19955;-75
2023/07/21 06:11:54;;;;;;;;;;;27.40;45.40;;;;;;5024936;28;19932;-77
2023/07/21 06:14:19;;;;;;;;;;;27.60;44.20;;;;;;5016845;28;19925;-77
2023/07/21 06:16:45;;;;;;;;;;;27.80;43.40;;;;;;5040444;28;19916;-76
2023/07/21 06:19:10;;;;;;;;;;;27.80;42.90;;;;;;5011383;28;19916;-70
2023/07/21 06:21:36;;;;;;;;;;;28.00;42.90;;;;;;5024088;28;19917;-77
2023/07/21 06:24:01;;;;;;;;;;;28.30;42.50;;;;;;5029722;28;19913;-76
2023/07/21 06:26:27;;;;;;;;;;;28.50;41.80;;;;;;5011063;28;19918;-76
2023/07/21 06:28:52;;;;;;;;;;;28.80;41.90;;;;;;5040269;28;19939;-77
2023/07/21 06:31:18;;;;;;;;;;;29.10;41.40;;;;;;5027548;28;19958;-77
2023/07/21 06:33:43;;;;;;;;;;;29.40;40.80;;;;;;5035311;28;20365;-77
2023/07/21 06:36:09;;;;;;;;;;;29.80;40.20;;;;;;5036903;28;19913;-77
2023/07/21 06:38:34;;;;;;;;;;;29.90;38.90;;;;;;5029873;28;20392;-76
2023/07/21 06:41:01;;;;;;;;;;;30.30;39.00;;;;;;5029924;28;19923;-75
2023/07/21 06:43:26;;;;;;;;;;;30.70;38.50;;;;;;5027341;28;19920;-77
2023/07/21 06:45:52;;;;;;;;;;;31.20;37.70;;;;;;5029468;28;19913;-78
2023/07/21 06:48:17;;;;;;;;;;;31.70;37.00;;;;;;5017855;28;19923;-77
2023/07/21 06:50:43;;;;;;;;;;;32.10;35.00;;;;;;5011009;28;19956;-77
2023/07/21 06:53:08;;;;;;;;;;;32.40;34.00;;;;;;5017668;28;19928;-77
2023/07/21 06:55:34;;;;;;;;;;;32.80;33.70;;;;;;5034283;28;20365;-77
2023/07/21 06:58:00;;;;;;;;;;;33.00;33.20;;;;;;5033698;28;19917;-77
2023/07/21 07:00:26;;;;;;;;;;;33.10;32.30;;;;;;5028267;28;20365;-78
2023/07/21 07:02:53;;;;;;;;;;;33.00;31.70;;;;;;5013832;28;19918;-77
2023/07/21 07:05:18;;;;;;;;;;;33.10;32.10;;;;;;5014830;28;19951;-77
2023/07/21 07:07:44;;;;;;;;;;;33.20;31.90;;;;;;5011734;28;19968;-77
2023/07/21 07:10:10;;;;;;;;;;;33.30;32.10;;;;;;5034064;28;19956;-74
2023/07/21 07:12:36;;;;;;;;;;;33.60;31.90;;;;;;5043773;28;19971;-77
2023/07/21 07:15:01;;;;;;;;;;;33.80;31.40;;;;;;5030642;28;19917;-77
2023/07/21 07:17:27;;;;;;;;;;;33.90;31.40;;;;;;5030013;28;19921;-78
2023/07/21 07:19:52;;;;;;;;;;;34.30;31.40;;;;;;5027611;28;19940;-77
2023/07/21 07:22:18;;;;;;;;;;;34.80;31.30;;;;;;5026963;28;19963;-77
2023/07/21 07:24:43;;;;;;;;;;;35.30;30.50;;;;;;5033805;28;19913;-75
2023/07/21 07:27:09;;;;;;;;;;;35.80;30.40;;;;;;5034822;28;20388;-77
2023/07/21 07:29:35;;;;;;;;;;;36.30;29.60;;;;;;5034154;28;19916;-76
2023/07/21 07:32:00;;;;;;;;;;;36.60;28.70;;;;;;5027198;28;19939;-76
2023/07/21 07:34:26;;;;;;;;;;;36.80;28.10;;;;;;5033603;28;19913;-77
2023/07/21 07:36:52;;;;;;;;;;;36.90;27.70;;;;;;5033322;28;19909;-77
2023/07/21 07:39:18;;;;;;;;;;;37.00;27.30;;;;;;5033766;28;20402;-76
2023/07/21 07:41:45;;;;;;;;;;;37.20;27.20;;;;;;5016675;28;20332;-76
2023/07/21 07:44:11;;;;;;;;;;;37.40;26.70;;;;;;5026298;28;20003;-77
2023/07/21 07:46:37;;;;;;;;;;;37.50;26.50;;;;;;5032528;28;20408;-75
2023/07/21 07:49:02;;;;;;;;;;;37.60;26.10;;;;;;5032906;28;19960;-76
2023/07/21 07:51:29;;;;;;;;;;;37.70;25.90;;;;;;5032222;28;19955;-76
2023/07/21 07:53:54;;;;;;;;;;;37.90;26.10;;;;;;5031334;28;19932;-77
2023/07/21 07:56:21;;;;;;;;;;;38.30;25.80;;;;;;5024825;28;19910;-77
2023/07/21 07:58:47;;;;;;;;;;;38.60;25.60;;;;;;5013491;28;19918;-77
2023/07/21 08:01:13;;;;;;;;;;;38.90;25.40;;;;;;5017305;28;19916;-76
2023/07/21 08:03:43;;;;;;;;;;;39.20;25.10;;;;;;5013124;28;19968;-77
2023/07/21 08:06:12;;;;;;;;;;;39.40;24.40;;;;;;5013389;28;20286;-77
2023/07/21 08:08:38;;;;;;;;;;;39.40;23.90;;;;;;5013544;28;20373;-76
2023/07/21 08:11:05;;;;;;;;;;;39.10;23.40;;;;;;5014779;28;19963;-76
2023/07/21 08:13:31;;;;;;;;;;;38.60;23.70;;;;;;5035367;28;19917;-76
2023/07/21 08:15:56;;;;;;;;;;;38.40;24.00;;;;;;5013653;28;19929;-76
2023/07/21 08:18:22;;;;;;;;;;;38.50;24.20;;;;;;5013830;28;19920;-77
2023/07/21 08:20:49;;;;;;;;;;;39.00;24.40;;;;;;5027200;28;19920;-77
2023/07/21 08:23:14;;;;;;;;;;;39.20;23.10;;;;;;5033360;28;19940;-78
2023/07/21 08:25:40;;;;;;;;;;;39.10;22.90;;;;;;5024955;28;20358;-76
2023/07/21 08:28:07;;;;;;;;;;;38.90;22.60;;;;;;5013362;28;19971;-76
2023/07/21 08:30:33;;;;;;;;;;;38.50;22.30;;;;;;5012899;28;19915;-76
2023/07/21 08:32:59;;;;;;;;;;;37.80;22.60;;;;;;5012601;28;20036;-77
2023/07/21 08:35:25;;;;;;;;;;;37.30;23.40;;;;;;5019759;28;19917;-76
2023/07/21 08:37:51;;;;;;;;;;;36.90;23.70;;;;;;5032706;28;19921;-75
2023/07/21 08:40:16;;;;;;;;;;;37.10;24.50;;;;;;5028311;28;19917;-73
2023/07/21 08:42:42;;;;;;;;;;;37.50;24.70;;;;;;5018636;28;19925;-76
2023/07/21 08:45:08;;;;;;;;;;;37.80;24.40;;;;;;5029975;28;19920;-75
2023/07/21 08:47:34;;;;;;;;;;;38.30;23.50;;;;;;5032327;28;19968;-75
2023/07/21 08:50:01;;;;;;;;;;;38.70;23.50;;;;;;5014473;28;19956;-75
2023/07/21 08:52:26;;;;;;;;;;;39.30;22.60;;;;;;5030613;28;19924;-76
2023/07/21 08:54:53;;;;;;;;;;;39.50;22.20;;;;;;5030773;28;19913;-77
2023/07/21 08:57:19;;;;;;;;;;;39.90;21.50;;;;;;5030821;28;19918;-76
2023/07/21 08:59:44;;;;;;;;;;;39.80;20.80;;;;;;5045285;28;19940;-76
2023/07/21 09:02:10;;;;;;;;;;;39.50;21.00;;;;;;5031906;28;20373;-77
2023/07/21 09:04:37;;;;;;;;;;;39.30;21.10;;;;;;5029529;28;19925;-76
2023/07/21 09:07:03;;;;;;;;;;;39.30;21.30;;;;;;5031608;28;19921;-76
2023/07/21 09:09:29;;;;;;;;;;;39.20;21.20;;;;;;5031950;28;19909;-76
2023/07/21 09:12:02;;;;;;;;;;;39.00;21.30;;;;;;5044071;28;19932;-76
2023/07/21 09:14:38;;;;;;;;;;;38.60;21.40;;;;;;5045601;28;19921;-76
2023/07/21 09:17:07;;;;;;;;;;;38.50;21.60;;;;;;5024864;28;19917;-77
2023/07/21 09:19:39;;;;;;;;;;;38.70;21.30;;;;;;5040304;28;19936;-77
2023/07/21 09:22:05;;;;;;;;;;;38.60;21.30;;;;;;5031730;28;20392;-77
2023/07/21 09:24:30;;;;;;;;;;;38.50;21.10;;;;;;5031624;28;20004;-77
2023/07/21 09:27:12;;;;;;;;;;;38.40;21.30;;;;;;5032334;28;20297;-77
2023/07/21 09:29:38;;;;;;;;;;;38.70;21.50;;;;;;5043636;28;20011;-76
2023/07/21 09:32:30;;;;;;;;;;;39.00;21.10;;;;;;5035150;28;20184;-77
2023/07/21 09:35:03;;;;;;;;;;;39.10;21.10;;;;;;5026529;28;19917;-76
2023/07/21 09:37:29;;;;;;;;;;;39.10;20.70;;;;;;5031629;28;20016;-76
2023/07/21 09:39:57;;;;;;;;;;;38.90;20.60;;;;;;5029199;28;20000;-75
2023/07/21 09:42:25;;;;;;;;;;;38.90;20.90;;;;;;5049496;28;20257;-76
2023/07/21 09:44:51;;;;;;;;;;;39.20;20.70;;;;;;5036587;28;20008;-76
2023/07/21 09:47:17;;;;;;;;;;;39.20;20.30;;;;;;5029804;28;19933;-76
2023/07/21 09:49:43;;;;;;;;;;;39.10;19.50;;;;;;5019143;28;19913;-76
2023/07/21 09:52:11;;;;;;;;;;;38.80;19.90;;;;;;5022312;28;19921;-76
2023/07/21 09:54:39;;;;;;;;;;;38.70;20.00;;;;;;5029436;28;19917;-74
2023/07/21 09:57:05;;;;;;;;;;;38.90;20.20;;;;;;5025476;28;19917;-75
2023/07/21 09:59:34;;;;;;;;;;;39.30;20.60;;;;;;5012329;28;19949;-75
2023/07/21 10:01:59;;;;;;;;;;;39.80;20.10;;;;;;5011989;28;19917;-75
2023/07/21 10:04:25;;;;;;;;;;;40.00;19.80;;;;;;5018693;28;20285;-75
2023/07/21 10:06:53;;;;;;;;;;;39.90;19.60;;;;;;5030629;28;20364;-76
2023/07/21 10:09:19;;;;;;;;;;;39.80;19.70;;;;;;5031479;28;20419;-77
2023/07/21 10:11:46;;;;;;;;;;;39.50;19.70;;;;;;5036013;28;19913;-76
2023/07/21 10:14:30;;;;;;;;;;;39.10;19.50;;;;;;5051354;28;20012;-79
2023/07/21 10:16:56;;;;;;;;;;;38.30;19.80;;;;;;5049321;28;19956;-75
2023/07/21 10:19:22;;;;;;;;;;;37.20;20.40;;;;;;5047192;28;19952;-76
2023/07/21 10:21:49;;;;;;;;;;;36.10;21.10;;;;;;5051735;28;20282;-77
2023/07/21 10:24:21;;;;;;;;;;;35.10;22.00;;;;;;5026603;28;19939;-76
2023/07/21 10:26:52;;;;;;;;;;;34.20;22.90;;;;;;5035469;28;19956;-76
2023/07/21 10:29:17;;;;;;;;;;;33.40;23.70;;;;;;5036698;28;19909;-77
2023/07/21 10:31:53;;;;;;;;;;;32.80;24.40;;;;;;5055291;28;19909;-76
2023/07/21 10:34:22;;;;;;;;;;;32.20;25.00;;;;;;5052810;28;19938;-76
2023/07/21 10:36:51;;;;;;;;;;;31.70;25.70;;;;;;5037102;28;20003;-75
2023/07/21 10:39:20;;;;;;;;;;;31.30;26.30;;;;;;5038798;28;20411;-77
2023/07/21 10:41:50;;;;;;;;;;;31.10;26.70;;;;;;5055413;28;19908;-76
2023/07/21 10:44:15;;;;;;;;;;;30.90;27.10;;;;;;5046249;28;19960;-76
2023/07/21 10:46:41;;;;;;;;;;;30.60;27.70;;;;;;5035169;28;20356;-78
2023/07/21 10:49:09;;;;;;;;;;;30.20;28.70;;;;;;5034665;28;19909;-74
2023/07/21 10:51:34;;;;;;;;;;;29.80;29.90;;;;;;5054930;28;20361;-76
2023/07/21 10:54:00;;;;;;;;;;;29.50;30.90;;;;;;5041347;28;20000;-76
2023/07/21 10:56:25;;;;;;;;;;;29.10;32.30;;;;;;5045733;28;19949;-71
2023/07/21 10:58:52;;;;;;;;;;;28.30;41.60;;;;;;5046975;28;20408;-72
2023/07/21 11:01:19;;;;;;;;;;;27.30;45.90;;;;;;5017922;28;20277;-67
2023/07/21 11:03:48;;;;;;;;;;;26.50;50.00;;;;;;5055247;28;20276;-66
2023/07/21 11:06:13;;;;;;;;;;;25.80;52.50;;;;;;5037329;28;19909;-67
2023/07/21 11:08:39;;;;;;;;;;;25.20;54.80;;;;;;5037127;28;19921;-69
2023/07/21 11:11:04;;;;;;;;;;;24.80;58.00;;;;;;5035967;28;19934;-68
2023/07/21 11:13:30;;;;;;;;;;;24.60;59.60;;;;;;5053609;28;19917;-68
2023/07/21 11:15:56;;;;;;;;;;;24.30;60.70;;;;;;5046120;28;19925;-69
2023/07/21 11:18:22;;;;;;;;;;;24.10;61.70;;;;;;5035140;28;20396;-70
2023/07/21 11:20:51;;;;;;;;;;;23.90;62.40;;;;;;5033543;28;19964;-70
2023/07/21 11:23:17;;;;;;;;;;;23.70;63.30;;;;;;5035020;28;20051;-72
2023/07/21 11:25:58;;;;;;;;;;;23.60;64.00;;;;;;5032296;28;19960;-70
2023/07/21 11:28:24;;;;;;;;;;;23.50;64.60;;;;;;5037297;28;19917;-70
2023/07/21 11:30:49;;;;;;;;;;;23.50;65.20;;;;;;5034431;28;20411;-69
2023/07/21 11:33:15;;;;;;;;;;;23.60;65.90;;;;;;5031238;28;19979;-72
2023/07/21 11:35:48;;;;;;;;;;;23.70;66.80;;;;;;5037262;28;20262;-72
2023/07/21 11:38:14;;;;;;;;;;;23.90;67.50;;;;;;5034591;28;19917;-71
2023/07/21 11:40:39;;;;;;;;;;;24.10;67.90;;;;;;5026694;28;19914;-71
2023/07/21 11:43:07;;;;;;;;;;;24.30;68.20;;;;;;5029304;28;19917;-69
2023/07/21 11:45:33;;;;;;;;;;;24.60;68.80;;;;;;5034173;28;20389;-70
2023/07/21 11:47:59;;;;;;;;;;;24.80;68.90;;;;;;5033974;28;19940;-71
2023/07/21 11:50:24;;;;;;;;;;;25.10;68.50;;;;;;5034102;28;19909;-70
2023/07/21 11:52:50;;;;;;;;;;;25.30;68.60;;;;;;5033777;28;19996;-69
2023/07/21 11:55:15;;;;;;;;;;;25.50;69.10;;;;;;5034010;28;19923;-70
2023/07/21 11:57:41;;;;;;;;;;;25.80;69.40;;;;;;5016336;28;19939;-69
2023/07/21 12:00:11;;;;;;;;;;;26.10;69.60;;;;;;5016054;28;19916;-69
2023/07/21 12:02:37;;;;;;;;;;;26.40;70.40;;;;;;5034072;28;19917;-69
2023/07/21 12:05:03;;;;;;;;;;;26.70;70.50;;;;;;5032459;28;19920;-69
2023/07/21 12:07:29;;;;;;;;;;;27.00;70.50;;;;;;5033977;28;19921;-68
2023/07/21 12:09:54;;;;;;;;;;;27.30;70.50;;;;;;5033847;28;19917;-70
2023/07/21 12:12:20;;;;;;;;;;;27.70;70.30;;;;;;5051135;28;20011;-71
2023/07/21 12:14:45;;;;;;;;;;;28.10;69.90;;;;;;5053635;28;19920;-73
2023/07/21 12:17:14;;;;;;;;;;;28.50;69.90;;;;;;5049870;28;19923;-72
2023/07/21 12:19:40;;;;;;;;;;;28.90;69.90;;;;;;5052265;28;19916;-74
2023/07/21 12:22:06;;;;;;;;;;;29.40;69.40;;;;;;5053350;28;19924;-73
2023/07/21 12:24:32;;;;;;;;;;;29.80;68.60;;;;;;5034526;28;20357;-72
2023/07/21 12:26:57;;;;;;;;;;;30.10;68.10;;;;;;5033459;28;19918;-73
2023/07/21 12:29:23;;;;;;;;;;;30.30;67.40;;;;;;5031691;28;20904;-72
2023/07/21 12:31:49;;;;;;;;;;;30.40;67.40;;;;;;5033606;28;19917;-71
2023/07/21 12:34:15;;;;;;;;;;;30.60;67.00;;;;;;5045378;28;19921;-71
2023/07/21 12:36:40;;;;;;;;;;;30.60;66.20;;;;;;5032221;28;19913;-70
2023/07/21 12:39:09;;;;;;;;;;;30.50;64.60;;;;;;5040092;28;19913;-73
2023/07/21 12:41:38;;;;;;;;;;;30.30;62.40;;;;;;5053063;28;20012;-72
2023/07/21 12:44:03;;;;;;;;;;;30.10;62.30;;;;;;5028925;28;19920;-72
2023/07/21 12:46:30;;;;;;;;;;;30.10;63.70;;;;;;5018670;28;19917;-72
2023/07/21 12:48:55;;;;;;;;;;;30.00;62.90;;;;;;5018484;28;20377;-72
2023/07/21 12:51:21;;;;;;;;;;;29.80;62.40;;;;;;5021970;28;19913;-73
2023/07/21 12:53:46;;;;;;;;;;;29.50;63.10;;;;;;5030664;28;19921;-72
2023/07/21 12:56:12;;;;;;;;;;;29.50;65.00;;;;;;5023426;28;19921;-72
2023/07/21 12:58:37;;;;;;;;;;;29.50;65.40;;;;;;5012635;28;19918;-73
2023/07/21 13:01:05;;;;;;;;;;;29.50;65.50;;;;;;5012081;28;20327;-72
2023/07/21 13:03:30;;;;;;;;;;;29.30;62.60;;;;;;5020446;28;20373;-72
2023/07/21 13:05:56;;;;;;;;;;;28.80;56.50;;;;;;5013094;28;19925;-73
2023/07/21 13:08:21;;;;;;;;;;;28.10;56.00;;;;;;5022345;28;19932;-74
2023/07/21 13:10:46;;;;;;;;;;;27.50;58.50;;;;;;5032404;28;19916;-73
2023/07/21 13:13:12;;;;;;;;;;;27.10;60.50;;;;;;5031171;28;19961;-74
2023/07/21 13:15:37;;;;;;;;;;;26.90;61.20;;;;;;5032302;28;19917;-73
2023/07/21 13:18:04;;;;;;;;;;;26.70;61.20;;;;;;5045317;28;19917;-72
2023/07/21 13:20:29;;;;;;;;;;;26.30;61.30;;;;;;5052543;28;20333;-73
2023/07/21 13:22:55;;;;;;;;;;;26.00;61.70;;;;;;5050296;28;19917;-73
2023/07/21 13:25:20;;;;;;;;;;;25.80;61.60;;;;;;5034538;28;20384;-74
2023/07/21 13:27:46;;;;;;;;;;;25.60;62.30;;;;;;5036726;28;20291;-73
2023/07/21 13:30:11;;;;;;;;;;;25.30;61.30;;;;;;5052048;28;20011;-73
2023/07/21 13:32:37;;;;;;;;;;;25.20;59.80;;;;;;5052231;28;20352;-73
2023/07/21 13:35:03;;;;;;;;;;;25.00;59.00;;;;;;5041526;28;20015;-73
2023/07/21 13:37:28;;;;;;;;;;;25.00;59.80;;;;;;5032570;28;19918;-74
2023/07/21 13:39:54;;;;;;;;;;;25.00;61.00;;;;;;5030996;28;19967;-74
2023/07/21 13:42:19;;;;;;;;;;;25.20;62.10;;;;;;5031497;28;20293;-72
2023/07/21 13:44:45;;;;;;;;;;;25.20;61.70;;;;;;5033946;28;20323;-74
2023/07/21 13:47:11;;;;;;;;;;;25.00;61.00;;;;;;5045572;28;20393;-74
2023/07/21 13:49:37;;;;;;;;;;;24.90;60.70;;;;;;5030371;28;19921;-69
2023/07/21 13:52:02;;;;;;;;;;;24.50;60.50;;;;;;5012247;28;19925;-68
2023/07/21 13:54:28;;;;;;;;;;;23.80;61.80;;;;;;5014513;28;19921;-68
2023/07/21 13:56:53;;;;;;;;;;;23.20;63.10;;;;;;5051263;28;20434;-68
2023/07/21 13:59:19;;;;;;;;;;;22.70;64.40;;;;;;5017400;28;19917;-69
2023/07/21 14:01:45;;;;;;;;;;;22.40;65.60;;;;;;5025265;28;19954;-69
2023/07/21 14:04:11;;;;;;;;;;;22.20;66.50;;;;;;5031803;28;20292;-69
2023/07/21 14:06:37;;;;;;;;;;;22.10;68.00;;;;;;5029073;28;20320;-69
2023/07/21 14:09:07;;;;;;;;;;;22.10;68.90;;;;;;5031693;28;19923;-68
2023/07/21 14:11:36;;;;;;;;;;;22.10;69.20;;;;;;5030495;28;20369;-69